createdAt,value
2023-01-18T00:00:08.265Z,47.86
2023-01-18T00:01:08.199Z,42.86
2023-01-18T00:02:08.202Z,45.76
2023-01-18T00:03:08.163Z,45.44
2023-01-18T00:04:08.157Z,45.92
2023-01-18T00:05:08.159Z,48.02
2023-01-18T00:06:08.159Z,49.63
2023-01-18T00:07:08.112Z,48.18
2023-01-18T00:08:08.103Z,63.33
2023-01-18T00:09:08.109Z,48.18
2023-01-18T00:10:08.127Z,48.02
2023-01-18T00:11:08.069Z,52.53
2023-01-18T00:12:08.073Z,46.89
2023-01-18T00:13:08.083Z,55.91
2023-01-18T00:14:08.085Z,56.40
2023-01-18T00:15:08.066Z,56.24
2023-01-18T00:16:08.063Z,47.37
2023-01-18T00:17:08.042Z,42.38
2023-01-18T00:18:08.015Z,43.18
2023-01-18T00:19:08.026Z,48.18
2023-01-18T00:20:07.998Z,46.57
2023-01-18T00:21:07.969Z,42.70
2023-01-18T00:22:07.959Z,50.76
2023-01-18T00:23:08.004Z,43.02
2023-01-18T00:24:07.951Z,46.41
2023-01-18T00:25:07.957Z,42.70
2023-01-18T00:26:07.920Z,42.70
2023-01-18T00:27:07.908Z,44.96
2023-01-18T00:28:07.933Z,43.51
2023-01-18T00:29:07.886Z,47.21
2023-01-18T00:30:07.901Z,43.83
2023-01-18T00:31:07.868Z,43.67
2023-01-18T00:32:07.898Z,48.34
2023-01-18T00:33:07.902Z,43.02
2023-01-18T00:34:07.856Z,43.18
2023-01-18T00:35:07.839Z,50.76
2023-01-18T00:36:07.826Z,46.89
2023-01-18T00:37:07.811Z,54.46
2023-01-18T00:38:07.841Z,44.15
2023-01-18T00:39:07.799Z,43.83
2023-01-18T00:40:07.800Z,42.38
2023-01-18T00:41:07.799Z,44.63
2023-01-18T00:42:07.791Z,45.28
2023-01-18T00:43:07.782Z,43.51
2023-01-18T00:44:07.790Z,43.18
2023-01-18T00:45:07.876Z,43.34
2023-01-18T00:46:07.839Z,43.02
2023-01-18T00:47:07.718Z,49.47
2023-01-18T00:48:07.719Z,43.34
2023-01-18T00:49:07.688Z,54.46
2023-01-18T00:50:07.702Z,42.22
2023-01-18T00:51:07.716Z,44.15
2023-01-18T00:52:07.684Z,44.96
2023-01-18T00:53:07.698Z,42.54
2023-01-18T00:54:07.648Z,43.34
2023-01-18T00:55:07.686Z,43.02
2023-01-18T00:56:07.637Z,46.25
2023-01-18T00:57:07.626Z,43.67
2023-01-18T00:58:07.614Z,42.22
2023-01-18T00:59:07.606Z,46.25
2023-01-18T01:00:07.613Z,43.67
2023-01-18T01:01:07.738Z,49.95
2023-01-18T01:02:07.763Z,44.96
2023-01-18T01:03:07.548Z,45.92
2023-01-18T01:04:07.562Z,45.12
2023-01-18T01:05:07.575Z,43.99
2023-01-18T01:06:07.539Z,45.12
2023-01-18T01:07:07.532Z,43.67
2023-01-18T01:08:07.518Z,43.18
2023-01-18T01:09:07.495Z,44.63
2023-01-18T01:10:07.510Z,58.81
2023-01-18T01:11:07.476Z,42.22
2023-01-18T01:12:07.519Z,43.18
2023-01-18T01:13:07.463Z,44.63
2023-01-18T01:14:07.452Z,46.08
2023-01-18T01:15:07.463Z,44.15
2023-01-18T01:16:07.457Z,56.07
2023-01-18T01:17:07.415Z,43.99
2023-01-18T01:18:07.464Z,48.82
2023-01-18T01:19:07.409Z,49.15
2023-01-18T01:20:07.391Z,45.76
2023-01-18T01:21:07.378Z,44.79
2023-01-18T01:22:07.368Z,45.60
2023-01-18T01:23:07.374Z,47.37
2023-01-18T01:24:07.375Z,44.15
2023-01-18T01:25:07.374Z,45.12
2023-01-18T01:26:07.380Z,44.63
2023-01-18T01:27:07.328Z,44.79
2023-01-18T01:28:07.322Z,45.12
2023-01-18T01:29:07.333Z,44.79
2023-01-18T01:30:07.295Z,43.34
2023-01-18T01:31:07.431Z,44.31
2023-01-18T01:32:07.343Z,45.60
2023-01-18T01:33:07.264Z,43.67
2023-01-18T01:34:07.298Z,43.34
2023-01-18T01:35:07.235Z,43.83
2023-01-18T01:36:07.298Z,45.28
2023-01-18T01:37:07.254Z,42.86
2023-01-18T01:38:07.235Z,43.99
2023-01-18T01:39:07.229Z,47.86
2023-01-18T01:40:07.202Z,60.10
2023-01-18T01:41:07.199Z,43.99
2023-01-18T01:42:07.190Z,43.83
2023-01-18T01:43:07.173Z,44.15
2023-01-18T01:44:07.175Z,45.92
2023-01-18T01:45:07.188Z,42.86
2023-01-18T01:46:07.257Z,47.53
2023-01-18T01:47:07.148Z,43.18
2023-01-18T01:48:07.117Z,43.34
2023-01-18T01:49:07.101Z,44.79
2023-01-18T01:50:07.107Z,51.08
2023-01-18T01:51:07.086Z,43.51
2023-01-18T01:52:07.110Z,42.54
2023-01-18T01:53:07.070Z,43.34
2023-01-18T01:54:07.072Z,45.44
2023-01-18T01:55:07.062Z,50.43
2023-01-18T01:56:07.035Z,44.15
2023-01-18T01:57:07.043Z,44.31
2023-01-18T01:58:07.072Z,43.34
2023-01-18T01:59:06.997Z,43.83
2023-01-18T02:00:06.998Z,44.15
2023-01-18T02:01:07.169Z,44.79
2023-01-18T02:02:07.166Z,48.82
2023-01-18T02:03:06.983Z,43.99
2023-01-18T02:04:06.955Z,43.34
2023-01-18T02:05:06.946Z,47.21
2023-01-18T02:06:06.939Z,43.02
2023-01-18T02:07:06.941Z,43.34
2023-01-18T02:08:06.935Z,53.98
2023-01-18T02:09:06.904Z,43.83
2023-01-18T02:10:06.902Z,74.93
2023-01-18T02:11:06.910Z,51.88
2023-01-18T02:12:06.886Z,42.70
2023-01-18T02:13:06.886Z,45.12
2023-01-18T02:14:06.859Z,42.70
2023-01-18T02:15:06.846Z,43.51
2023-01-18T02:16:06.855Z,47.05
2023-01-18T02:17:06.819Z,43.34
2023-01-18T02:18:06.832Z,43.51
2023-01-18T02:19:06.815Z,48.98
2023-01-18T02:20:06.816Z,52.85
2023-01-18T02:21:06.786Z,44.31
2023-01-18T02:22:06.845Z,43.34
2023-01-18T02:23:06.795Z,44.63
2023-01-18T02:24:06.760Z,43.18
2023-01-18T02:25:06.745Z,43.67
2023-01-18T02:26:06.774Z,43.51
2023-01-18T02:27:06.730Z,44.47
2023-01-18T02:28:06.741Z,45.28
2023-01-18T02:29:06.725Z,43.83
2023-01-18T02:30:06.701Z,43.51
2023-01-18T02:31:06.755Z,43.34
2023-01-18T02:32:06.704Z,43.18
2023-01-18T02:33:06.674Z,43.18
2023-01-18T02:34:06.654Z,43.18
2023-01-18T02:35:06.654Z,46.25
2023-01-18T02:36:06.656Z,49.95
2023-01-18T02:37:06.643Z,50.92
2023-01-18T02:38:06.640Z,44.79
2023-01-18T02:39:06.604Z,50.43
2023-01-18T02:40:06.620Z,45.44
2023-01-18T02:41:06.587Z,46.25
2023-01-18T02:42:06.628Z,46.41
2023-01-18T02:43:06.606Z,51.88
2023-01-18T02:44:06.579Z,44.96
2023-01-18T02:45:06.566Z,43.34
2023-01-18T02:46:06.614Z,43.99
2023-01-18T02:47:06.542Z,43.51
2023-01-18T02:48:06.542Z,43.67
2023-01-18T02:49:06.556Z,43.67
2023-01-18T02:50:06.505Z,49.63
2023-01-18T02:51:06.502Z,45.28
2023-01-18T02:52:06.492Z,43.99
2023-01-18T02:53:06.510Z,44.15
2023-01-18T02:54:06.729Z,43.51
2023-01-18T02:55:06.442Z,46.08
2023-01-18T02:56:06.450Z,43.18
2023-01-18T02:57:06.426Z,44.63
2023-01-18T02:58:06.491Z,53.66
2023-01-18T02:59:06.404Z,44.15
2023-01-18T03:00:06.432Z,56.40
2023-01-18T03:01:06.457Z,51.40
2023-01-18T03:02:06.419Z,49.63
2023-01-18T03:03:06.364Z,45.28
2023-01-18T03:04:06.365Z,61.71
2023-01-18T03:05:06.375Z,46.57
2023-01-18T03:06:06.344Z,44.79
2023-01-18T03:07:06.348Z,50.11
2023-01-18T03:08:06.339Z,43.99
2023-01-18T03:09:06.301Z,47.70
2023-01-18T03:10:06.339Z,48.50
2023-01-18T03:11:06.285Z,45.28
2023-01-18T03:12:06.326Z,43.99
2023-01-18T03:13:06.265Z,46.41
2023-01-18T03:14:06.278Z,60.42
2023-01-18T03:15:06.294Z,48.98
2023-01-18T03:16:06.277Z,45.28
2023-01-18T03:17:06.259Z,42.22
2023-01-18T03:18:06.233Z,46.08
2023-01-18T03:19:06.205Z,44.79
2023-01-18T03:20:06.214Z,44.31
2023-01-18T03:21:06.219Z,44.15
2023-01-18T03:22:06.217Z,43.51
2023-01-18T03:23:06.172Z,43.67
2023-01-18T03:24:07.405Z,43.02
2023-01-18T03:25:06.193Z,43.83
2023-01-18T03:26:06.211Z,43.83
2023-01-18T03:27:06.282Z,54.95
2023-01-18T03:28:06.166Z,53.01
2023-01-18T03:29:06.137Z,66.23
2023-01-18T03:30:06.273Z,45.12
2023-01-18T03:31:06.199Z,44.47
2023-01-18T03:32:06.110Z,43.83
2023-01-18T03:33:06.191Z,46.89
2023-01-18T03:34:06.251Z,52.05
2023-01-18T03:35:06.075Z,43.51
2023-01-18T03:36:06.121Z,52.69
2023-01-18T03:37:06.088Z,50.76
2023-01-18T03:38:06.114Z,51.88
2023-01-18T03:39:06.266Z,50.92
2023-01-18T03:40:06.096Z,50.60
2023-01-18T03:41:06.042Z,44.47
2023-01-18T03:42:06.081Z,48.82
2023-01-18T03:43:06.128Z,70.58
2023-01-18T03:44:06.243Z,44.63
2023-01-18T03:45:06.095Z,48.34
2023-01-18T03:46:06.249Z,46.08
2023-01-18T03:47:06.106Z,48.82
2023-01-18T03:48:06.279Z,50.27
2023-01-18T03:49:06.026Z,58.17
2023-01-18T03:50:06.180Z,47.21
2023-01-18T03:51:05.991Z,48.02
2023-01-18T03:52:05.980Z,53.82
2023-01-18T03:53:06.030Z,45.44
2023-01-18T03:54:05.877Z,46.73
2023-01-18T03:55:05.856Z,47.53
2023-01-18T03:56:05.832Z,51.08
2023-01-18T03:57:05.849Z,62.20
2023-01-18T03:58:05.810Z,53.33
2023-01-18T03:59:05.859Z,54.62
2023-01-18T04:00:05.793Z,49.63
2023-01-18T04:01:05.879Z,49.31
2023-01-18T04:02:05.825Z,53.01
2023-01-18T04:03:05.834Z,49.79
2023-01-18T04:04:05.755Z,52.85
2023-01-18T04:05:05.776Z,56.88
2023-01-18T04:06:05.785Z,55.59
2023-01-18T04:07:05.740Z,50.43
2023-01-18T04:08:05.732Z,62.52
2023-01-18T04:09:05.855Z,59.94
2023-01-18T04:10:05.721Z,49.95
2023-01-18T04:11:05.706Z,50.92
2023-01-18T04:12:05.710Z,55.27
2023-01-18T04:13:05.675Z,58.33
2023-01-18T04:14:05.672Z,53.66
2023-01-18T04:15:05.667Z,51.40
2023-01-18T04:16:05.720Z,49.47
2023-01-18T04:17:05.632Z,55.91
2023-01-18T04:18:05.615Z,52.05
2023-01-18T04:19:05.645Z,49.95
2023-01-18T04:20:05.661Z,58.33
2023-01-18T04:21:05.597Z,56.88
2023-01-18T04:22:05.588Z,48.66
2023-01-18T04:23:05.588Z,55.75
2023-01-18T04:24:05.562Z,53.17
2023-01-18T04:25:05.568Z,57.85
2023-01-18T04:26:05.533Z,49.79
2023-01-18T04:27:05.528Z,58.81
2023-01-18T04:28:05.542Z,49.47
2023-01-18T04:29:05.531Z,53.50
2023-01-18T04:30:05.509Z,47.21
2023-01-18T04:31:05.556Z,54.79
2023-01-18T04:32:05.520Z,50.60
2023-01-18T04:33:05.482Z,62.68
2023-01-18T04:34:05.482Z,57.36
2023-01-18T04:35:05.445Z,54.14
2023-01-18T04:36:05.441Z,63.81
2023-01-18T04:37:05.454Z,50.92
2023-01-18T04:38:05.420Z,61.23
2023-01-18T04:39:05.433Z,53.66
2023-01-18T04:40:05.402Z,65.58
2023-01-18T04:41:05.393Z,61.23
2023-01-18T04:42:05.429Z,54.95
2023-01-18T04:43:05.385Z,53.50
2023-01-18T04:44:05.380Z,58.81
2023-01-18T04:45:05.378Z,49.63
2023-01-18T04:46:05.370Z,50.92
2023-01-18T04:47:05.371Z,54.95
2023-01-18T04:48:05.312Z,51.88
2023-01-18T04:49:05.314Z,54.62
2023-01-18T04:50:05.305Z,53.17
2023-01-18T04:51:05.322Z,56.56
2023-01-18T04:52:05.291Z,55.91
2023-01-18T04:53:05.276Z,57.85
2023-01-18T04:54:05.276Z,59.78
2023-01-18T04:55:05.274Z,57.85
2023-01-18T04:56:05.263Z,59.78
2023-01-18T04:57:05.259Z,57.36
2023-01-18T04:58:05.218Z,48.02
2023-01-18T04:59:05.229Z,64.29
2023-01-18T05:00:06.723Z,57.69
2023-01-18T05:01:05.344Z,52.53
2023-01-18T05:02:05.183Z,57.20
2023-01-18T05:03:05.194Z,54.62
2023-01-18T05:04:05.191Z,65.26
2023-01-18T05:05:05.158Z,59.46
2023-01-18T05:06:05.136Z,62.84
2023-01-18T05:07:05.127Z,52.53
2023-01-18T05:08:05.115Z,58.65
2023-01-18T05:09:05.140Z,54.14
2023-01-18T05:10:05.122Z,50.11
2023-01-18T05:11:05.113Z,59.78
2023-01-18T05:12:05.093Z,69.29
2023-01-18T05:13:05.071Z,56.40
2023-01-18T05:14:05.082Z,57.85
2023-01-18T05:15:05.086Z,63.16
2023-01-18T05:16:06.214Z,53.98
2023-01-18T05:17:05.044Z,58.17
2023-01-18T05:18:05.046Z,64.13
2023-01-18T05:19:05.008Z,52.05
2023-01-18T05:20:05.025Z,55.75
2023-01-18T05:21:04.998Z,58.01
2023-01-18T05:22:04.975Z,52.05
2023-01-18T05:23:04.975Z,58.65
2023-01-18T05:24:04.999Z,54.14
2023-01-18T05:25:04.956Z,57.36
2023-01-18T05:26:04.976Z,59.30
2023-01-18T05:27:04.955Z,65.58
2023-01-18T05:28:04.945Z,59.30
2023-01-18T05:29:04.930Z,53.82
2023-01-18T05:30:06.799Z,66.87
2023-01-18T05:31:04.907Z,63.49
2023-01-18T05:32:04.901Z,64.13
2023-01-18T05:33:04.949Z,59.46
2023-01-18T05:34:04.920Z,51.08
2023-01-18T05:35:04.870Z,65.74
2023-01-18T05:36:04.847Z,63.16
2023-01-18T05:37:04.839Z,63.81
2023-01-18T05:38:04.853Z,67.19
2023-01-18T05:39:04.830Z,65.42
2023-01-18T05:40:04.803Z,61.87
2023-01-18T05:41:04.840Z,59.94
2023-01-18T05:42:04.796Z,53.17
2023-01-18T05:43:04.784Z,62.68
2023-01-18T05:44:04.775Z,63.49
2023-01-18T05:45:04.825Z,56.56
2023-01-18T05:46:04.863Z,69.61
2023-01-18T05:47:04.756Z,63.33
2023-01-18T05:48:04.734Z,61.71
2023-01-18T05:49:04.684Z,68.16
2023-01-18T05:50:04.755Z,67.35
2023-01-18T05:51:04.710Z,59.46
2023-01-18T05:52:04.678Z,60.42
2023-01-18T05:53:04.652Z,67.68
2023-01-18T05:54:04.671Z,64.94
2023-01-18T05:55:04.692Z,64.45
2023-01-18T05:56:04.652Z,61.55
2023-01-18T05:57:04.668Z,61.39
2023-01-18T05:58:04.623Z,59.78
2023-01-18T05:59:04.661Z,58.33
2023-01-18T06:00:04.626Z,64.78
2023-01-18T06:01:04.673Z,63.97
2023-01-18T06:02:04.650Z,61.07
2023-01-18T06:03:04.553Z,69.13
2023-01-18T06:04:04.609Z,72.67
2023-01-18T06:05:04.506Z,69.61
2023-01-18T06:06:04.552Z,67.03
2023-01-18T06:07:04.551Z,60.91
2023-01-18T06:08:04.485Z,68.32
2023-01-18T06:09:04.540Z,69.13
2023-01-18T06:10:04.466Z,66.71
2023-01-18T06:11:04.535Z,60.91
2023-01-18T06:12:04.557Z,59.78
2023-01-18T06:13:04.490Z,68.48
2023-01-18T06:14:04.502Z,56.24
2023-01-18T06:15:04.471Z,60.59
2023-01-18T06:16:04.575Z,69.93
2023-01-18T06:17:04.453Z,56.24
2023-01-18T06:18:04.431Z,65.58
2023-01-18T06:19:04.445Z,58.33
2023-01-18T06:20:04.396Z,68.48
2023-01-18T06:21:04.483Z,64.45
2023-01-18T06:22:04.402Z,60.42
2023-01-18T06:23:04.398Z,61.39
2023-01-18T06:24:04.379Z,62.84
2023-01-18T06:25:04.383Z,59.46
2023-01-18T06:26:04.334Z,62.84
2023-01-18T06:27:04.401Z,75.41
2023-01-18T06:28:04.345Z,62.36
2023-01-18T06:29:04.355Z,59.46
2023-01-18T06:30:04.353Z,60.10
2023-01-18T06:31:04.343Z,62.04
2023-01-18T06:32:04.359Z,60.26
2023-01-18T06:33:04.344Z,70.90
2023-01-18T06:34:04.291Z,60.42
2023-01-18T06:35:04.777Z,59.62
2023-01-18T06:36:04.269Z,65.90
2023-01-18T06:37:04.305Z,64.29
2023-01-18T06:38:04.304Z,63.97
2023-01-18T06:39:04.267Z,58.33
2023-01-18T06:40:04.298Z,62.36
2023-01-18T06:41:04.247Z,66.39
2023-01-18T06:42:04.226Z,66.39
2023-01-18T06:43:04.299Z,63.33
2023-01-18T06:44:04.196Z,72.03
2023-01-18T06:45:04.173Z,64.13
2023-01-18T06:46:04.175Z,67.84
2023-01-18T06:47:04.146Z,61.87
2023-01-18T06:48:04.109Z,61.55
2023-01-18T06:49:04.122Z,72.83
2023-01-18T06:50:04.083Z,64.61
2023-01-18T06:51:04.123Z,65.90
2023-01-18T06:52:04.125Z,63.81
2023-01-18T06:53:04.080Z,65.10
2023-01-18T06:54:04.083Z,68.80
2023-01-18T06:55:04.047Z,63.81
2023-01-18T06:56:04.032Z,70.25
2023-01-18T06:57:04.030Z,70.25
2023-01-18T06:58:04.051Z,65.10
2023-01-18T06:59:04.025Z,56.56
2023-01-18T07:00:03.974Z,68.48
2023-01-18T07:01:04.107Z,66.39
2023-01-18T07:02:04.004Z,59.46
2023-01-18T07:03:03.950Z,63.81
2023-01-18T07:04:03.975Z,57.52
2023-01-18T07:05:03.991Z,67.03
2023-01-18T07:06:03.922Z,61.39
2023-01-18T07:07:03.945Z,63.81
2023-01-18T07:08:03.919Z,59.78
2023-01-18T07:09:03.889Z,59.30
2023-01-18T07:10:03.901Z,67.68
2023-01-18T07:11:03.885Z,63.81
2023-01-18T07:12:03.867Z,61.23
2023-01-18T07:13:03.866Z,66.71
2023-01-18T07:14:03.846Z,59.62
2023-01-18T07:15:16.455Z,70.25
2023-01-18T07:16:03.848Z,72.03
2023-01-18T07:17:03.808Z,67.51
2023-01-18T07:18:03.828Z,66.23
2023-01-18T07:19:03.807Z,62.20
2023-01-18T07:20:03.789Z,71.06
2023-01-18T07:21:03.815Z,66.23
2023-01-18T07:22:03.794Z,75.25
2023-01-18T07:23:03.795Z,62.84
2023-01-18T07:24:03.862Z,73.48
2023-01-18T07:25:03.769Z,65.42
2023-01-18T07:26:03.743Z,63.97
2023-01-18T07:27:03.737Z,66.39
2023-01-18T07:28:03.706Z,69.13
2023-01-18T07:29:03.727Z,59.78
2023-01-18T07:30:03.676Z,61.71
2023-01-18T07:31:03.683Z,68.16
2023-01-18T07:32:03.702Z,72.83
2023-01-18T07:33:03.663Z,71.06
2023-01-18T07:34:03.665Z,63.33
2023-01-18T07:35:03.650Z,65.26
2023-01-18T07:36:03.612Z,70.90
2023-01-18T07:37:03.630Z,66.23
2023-01-18T07:38:03.622Z,67.03
2023-01-18T07:39:03.608Z,67.19
2023-01-18T07:40:03.674Z,64.45
2023-01-18T07:41:03.567Z,66.55
2023-01-18T07:42:03.558Z,63.49
2023-01-18T07:43:03.590Z,61.23
2023-01-18T07:44:03.548Z,63.16
2023-01-18T07:45:03.686Z,71.22
2023-01-18T07:46:03.545Z,64.94
2023-01-18T07:47:03.584Z,62.68
2023-01-18T07:48:03.498Z,67.51
2023-01-18T07:49:03.502Z,66.55
2023-01-18T07:50:03.528Z,65.90
2023-01-18T07:51:04.259Z,65.58
2023-01-18T07:52:03.638Z,67.03
2023-01-18T07:53:03.458Z,69.61
2023-01-18T07:54:03.461Z,62.68
2023-01-18T07:55:05.909Z,69.77
2023-01-18T07:56:03.443Z,69.61
2023-01-18T07:57:03.428Z,64.45
2023-01-18T07:58:03.441Z,69.77
2023-01-18T07:59:03.427Z,68.64
2023-01-18T08:00:03.408Z,65.10
2023-01-18T08:01:03.495Z,74.93
2023-01-18T08:02:03.430Z,68.64
2023-01-18T08:03:03.782Z,68.64
2023-01-18T08:04:04.295Z,67.03
2023-01-18T08:05:03.328Z,67.03
2023-01-18T08:06:03.397Z,66.55
2023-01-18T08:07:03.361Z,66.71
2023-01-18T08:08:03.339Z,68.32
2023-01-18T08:09:03.299Z,69.93
2023-01-18T08:10:03.298Z,66.39
2023-01-18T08:11:03.358Z,65.58
2023-01-18T08:12:03.292Z,70.58
2023-01-18T08:13:03.289Z,63.16
2023-01-18T08:14:03.252Z,60.10
2023-01-18T08:15:03.239Z,60.59
2023-01-18T08:16:03.269Z,64.45
2023-01-18T08:17:03.216Z,62.36
2023-01-18T08:18:03.215Z,68.32
2023-01-18T08:19:03.210Z,72.35
2023-01-18T08:20:03.201Z,61.71
2023-01-18T08:21:03.190Z,61.39
2023-01-18T08:22:03.189Z,75.57
2023-01-18T08:23:03.169Z,74.44
2023-01-18T08:24:03.148Z,82.50
2023-01-18T08:25:03.141Z,75.89
2023-01-18T08:26:03.231Z,76.54
2023-01-18T08:27:03.183Z,75.25
2023-01-18T08:28:03.133Z,73.15
2023-01-18T08:29:03.124Z,69.77
2023-01-18T08:30:03.854Z,66.39
2023-01-18T08:31:03.100Z,77.83
2023-01-18T08:32:03.161Z,71.06
2023-01-18T08:33:03.106Z,76.70
2023-01-18T08:34:03.059Z,78.79
2023-01-18T08:35:03.141Z,81.05
2023-01-18T08:36:03.023Z,77.83
2023-01-18T08:37:03.026Z,79.44
2023-01-18T08:38:03.036Z,78.15
2023-01-18T08:39:02.992Z,75.41
2023-01-18T08:40:03.002Z,75.25
2023-01-18T08:41:03.002Z,70.25
2023-01-18T08:42:02.965Z,59.94
2023-01-18T08:43:02.977Z,64.78
2023-01-18T08:44:02.997Z,60.91
2023-01-18T08:45:02.953Z,60.59
2023-01-18T08:46:02.966Z,66.87
2023-01-18T08:47:02.905Z,73.80
2023-01-18T08:48:02.909Z,66.06
2023-01-18T08:49:02.951Z,63.81
2023-01-18T08:50:02.903Z,65.42
2023-01-18T08:51:02.872Z,65.74
2023-01-18T08:52:03.034Z,68.32
2023-01-18T08:53:02.920Z,63.81
2023-01-18T08:54:02.856Z,66.55
2023-01-18T08:55:02.822Z,60.59
2023-01-18T08:56:02.854Z,63.49
2023-01-18T08:57:02.863Z,60.75
2023-01-18T08:58:02.828Z,64.94
2023-01-18T08:59:02.905Z,63.49
2023-01-18T09:00:02.892Z,58.97
2023-01-18T09:01:02.897Z,60.10
2023-01-18T09:02:02.884Z,61.71
2023-01-18T09:03:03.590Z,76.05
2023-01-18T09:04:02.794Z,74.77
2023-01-18T09:05:02.775Z,76.70
2023-01-18T09:06:02.726Z,65.90
2023-01-18T09:07:02.714Z,72.67
2023-01-18T09:08:02.718Z,70.90
2023-01-18T09:09:02.705Z,63.49
2023-01-18T09:10:02.716Z,67.68
2023-01-18T09:11:02.667Z,75.09
2023-01-18T09:12:02.668Z,65.42
2023-01-18T09:13:02.785Z,65.58
2023-01-18T09:14:02.685Z,65.58
2023-01-18T09:15:02.634Z,64.45
2023-01-18T09:16:02.712Z,69.29
2023-01-18T09:17:02.641Z,60.91
2023-01-18T09:18:02.641Z,62.84
2023-01-18T09:19:02.620Z,69.29
2023-01-18T09:20:02.598Z,63.00
2023-01-18T09:21:02.565Z,64.78
2023-01-18T09:22:02.563Z,59.30
2023-01-18T09:23:02.590Z,60.42
2023-01-18T09:24:02.582Z,71.87
2023-01-18T09:25:02.529Z,66.06
2023-01-18T09:26:02.538Z,66.06
2023-01-18T09:27:02.718Z,66.71
2023-01-18T09:28:02.550Z,67.68
2023-01-18T09:29:02.581Z,66.06
2023-01-18T09:30:02.520Z,68.00
2023-01-18T09:31:02.503Z,66.23
2023-01-18T09:32:02.460Z,63.16
2023-01-18T09:33:02.657Z,71.06
2023-01-18T09:34:18.588Z,68.00
2023-01-18T09:35:02.463Z,68.16
2023-01-18T09:36:02.441Z,66.55
2023-01-18T09:37:02.423Z,63.33
2023-01-18T09:38:02.419Z,68.32
2023-01-18T09:39:02.389Z,67.35
2023-01-18T09:40:02.388Z,77.83
2023-01-18T09:41:02.439Z,64.61
2023-01-18T09:42:02.363Z,70.74
2023-01-18T09:43:02.372Z,63.65
2023-01-18T09:44:02.360Z,63.65
2023-01-18T09:45:02.340Z,66.87
2023-01-18T09:46:02.343Z,69.13
2023-01-18T09:47:02.311Z,71.06
2023-01-18T09:48:02.339Z,70.09
2023-01-18T09:49:02.330Z,69.61
2023-01-18T09:50:02.348Z,64.29
2023-01-18T09:51:02.278Z,69.61
2023-01-18T09:52:02.259Z,71.87
2023-01-18T09:53:02.328Z,62.04
2023-01-18T09:54:02.282Z,66.87
2023-01-18T09:55:02.265Z,62.52
2023-01-18T09:56:02.223Z,66.87
2023-01-18T09:57:02.213Z,72.03
2023-01-18T09:58:02.197Z,67.84
2023-01-18T09:59:02.219Z,69.29
2023-01-18T10:00:02.188Z,75.89
2023-01-18T10:01:02.338Z,69.29
2023-01-18T10:02:02.325Z,71.06
2023-01-18T10:03:02.483Z,69.77
2023-01-18T10:04:02.169Z,67.35
2023-01-18T10:05:02.187Z,69.13
2023-01-18T10:06:02.150Z,66.39
2023-01-18T10:07:02.123Z,64.61
2023-01-18T10:08:02.112Z,71.22
2023-01-18T10:09:02.153Z,67.51
2023-01-18T10:10:02.159Z,64.13
2023-01-18T10:11:02.087Z,76.70
2023-01-18T10:12:02.113Z,69.93
2023-01-18T10:13:02.126Z,70.90
2023-01-18T10:14:02.070Z,60.75
2023-01-18T10:15:02.039Z,58.65
2023-01-18T10:16:02.035Z,61.39
2023-01-18T10:17:02.046Z,60.59
2023-01-18T10:18:02.043Z,81.05
2023-01-18T10:19:02.002Z,58.97
2023-01-18T10:20:02.053Z,60.26
2023-01-18T10:21:02.010Z,65.10
2023-01-18T10:22:01.976Z,59.14
2023-01-18T10:23:01.943Z,59.94
2023-01-18T10:24:01.963Z,59.78
2023-01-18T10:25:01.967Z,58.33
2023-01-18T10:26:01.946Z,59.46
2023-01-18T10:27:01.931Z,68.96
2023-01-18T10:28:01.935Z,59.94
2023-01-18T10:29:01.889Z,59.14
2023-01-18T10:30:01.960Z,58.81
2023-01-18T10:31:01.906Z,64.13
2023-01-18T10:32:01.917Z,60.26
2023-01-18T10:33:02.334Z,70.74
2023-01-18T10:34:01.860Z,86.85
2023-01-18T10:35:01.875Z,74.77
2023-01-18T10:36:01.838Z,90.07
2023-01-18T10:37:01.916Z,82.34
2023-01-18T10:38:02.129Z,78.79
2023-01-18T10:39:01.803Z,75.57
2023-01-18T10:40:01.826Z,90.72
2023-01-18T10:41:01.779Z,75.73
2023-01-18T10:42:01.781Z,68.80
2023-01-18T10:43:02.179Z,74.93
2023-01-18T10:44:01.788Z,89.91
2023-01-18T10:45:01.765Z,75.57
2023-01-18T10:46:01.795Z,74.93
2023-01-18T10:47:01.726Z,76.05
2023-01-18T10:48:01.720Z,73.64
2023-01-18T10:49:01.710Z,75.41
2023-01-18T10:50:01.701Z,75.41
2023-01-18T10:51:01.851Z,74.12
2023-01-18T10:52:01.667Z,74.93
2023-01-18T10:53:02.143Z,73.64
2023-01-18T10:54:01.652Z,77.34
2023-01-18T10:55:01.684Z,61.07
2023-01-18T10:56:01.651Z,59.78
2023-01-18T10:57:01.627Z,63.49
2023-01-18T10:58:01.820Z,58.97
2023-01-18T10:59:01.600Z,58.97
2023-01-18T11:00:01.638Z,59.94
2023-01-18T11:01:01.687Z,70.90
2023-01-18T11:02:01.762Z,67.19
2023-01-18T11:03:02.107Z,60.42
2023-01-18T11:04:01.551Z,56.24
2023-01-18T11:05:01.567Z,64.94
2023-01-18T11:06:01.557Z,59.30
2023-01-18T11:07:01.546Z,71.38
2023-01-18T11:08:02.711Z,57.52
2023-01-18T11:09:01.625Z,59.30
2023-01-18T11:10:01.547Z,64.78
2023-01-18T11:11:01.510Z,61.07
2023-01-18T11:12:01.838Z,61.55
2023-01-18T11:13:01.771Z,70.25
2023-01-18T11:14:01.710Z,60.91
2023-01-18T11:15:01.527Z,65.26
2023-01-18T11:16:01.808Z,64.45
2023-01-18T11:17:01.780Z,66.23
2023-01-18T11:18:01.639Z,59.94
2023-01-18T11:19:01.515Z,69.77
2023-01-18T11:20:01.563Z,59.30
2023-01-18T11:21:01.463Z,67.84
2023-01-18T11:22:01.382Z,61.87
2023-01-18T11:23:01.917Z,63.16
2023-01-18T11:24:01.448Z,64.13
2023-01-18T11:25:01.625Z,66.87
2023-01-18T11:26:01.501Z,64.78
2023-01-18T11:27:01.373Z,63.33
2023-01-18T11:28:01.719Z,66.23
2023-01-18T11:29:01.356Z,65.10
2023-01-18T11:30:01.312Z,61.71
2023-01-18T11:31:01.288Z,62.04
2023-01-18T11:32:01.401Z,68.00
2023-01-18T11:33:01.535Z,60.59
2023-01-18T11:34:01.302Z,72.35
2023-01-18T11:35:01.247Z,60.42
2023-01-18T11:36:01.290Z,61.07
2023-01-18T11:37:01.257Z,60.91
2023-01-18T11:38:01.928Z,65.90
2023-01-18T11:39:01.311Z,67.19
2023-01-18T11:40:01.203Z,63.81
2023-01-18T11:41:01.205Z,72.67
2023-01-18T11:42:01.211Z,75.57
2023-01-18T11:43:01.167Z,65.42
2023-01-18T11:44:01.186Z,64.29
2023-01-18T11:45:01.207Z,62.84
2023-01-18T11:46:01.477Z,59.46
2023-01-18T11:47:01.190Z,61.07
2023-01-18T11:48:01.586Z,65.74
2023-01-18T11:49:01.127Z,64.45
2023-01-18T11:50:10.333Z,65.10
2023-01-18T11:51:01.117Z,64.78
2023-01-18T11:52:01.079Z,60.91
2023-01-18T11:53:01.131Z,65.90
2023-01-18T11:54:01.119Z,65.26
2023-01-18T11:55:01.115Z,73.80
2023-01-18T11:56:01.045Z,67.35
2023-01-18T11:57:01.082Z,60.75
2023-01-18T11:58:01.561Z,62.52
2023-01-18T11:59:01.069Z,56.24
2023-01-18T12:00:01.021Z,68.00
2023-01-18T12:01:01.058Z,59.46
2023-01-18T12:02:01.076Z,59.30
2023-01-18T12:03:01.387Z,69.29
2023-01-18T12:04:00.977Z,64.29
2023-01-18T12:05:01.013Z,58.49
2023-01-18T12:06:00.976Z,59.14
2023-01-18T12:07:01.127Z,69.45
2023-01-18T12:08:02.281Z,61.23
2023-01-18T12:09:00.918Z,62.84
2023-01-18T12:10:00.940Z,63.81
2023-01-18T12:11:00.893Z,61.07
2023-01-18T12:12:13.533Z,65.10
2023-01-18T12:13:00.928Z,58.01
2023-01-18T12:14:00.864Z,68.32
2023-01-18T12:15:00.856Z,68.96
2023-01-18T12:16:00.881Z,67.19
2023-01-18T12:17:00.936Z,60.26
2023-01-18T12:18:12.334Z,62.04
2023-01-18T12:19:00.853Z,63.97
2023-01-18T12:20:00.855Z,61.87
2023-01-18T12:21:00.822Z,66.71
2023-01-18T12:22:00.933Z,68.80
2023-01-18T12:23:00.820Z,63.16
2023-01-18T12:24:00.774Z,62.68
2023-01-18T12:25:00.767Z,67.03
2023-01-18T12:26:11.875Z,69.45
2023-01-18T12:27:00.791Z,62.04
2023-01-18T12:28:01.419Z,60.10
2023-01-18T12:29:00.726Z,59.30
2023-01-18T12:30:00.734Z,67.68
2023-01-18T12:31:11.627Z,66.87
2023-01-18T12:32:01.390Z,57.20
2023-01-18T12:33:01.078Z,66.71
2023-01-18T12:34:00.676Z,68.00
2023-01-18T12:35:00.745Z,70.90
2023-01-18T12:36:00.722Z,63.00
2023-01-18T12:37:00.661Z,86.04
2023-01-18T12:38:01.165Z,69.61
2023-01-18T12:39:00.621Z,64.13
2023-01-18T12:40:00.645Z,68.00
2023-01-18T12:41:00.607Z,66.71
2023-01-18T12:42:00.589Z,65.90
2023-01-18T12:43:00.601Z,62.52
2023-01-18T12:44:00.743Z,69.29
2023-01-18T12:45:00.596Z,62.84
2023-01-18T12:46:00.587Z,64.78
2023-01-18T12:47:00.576Z,67.84
2023-01-18T12:48:00.863Z,63.97
2023-01-18T12:49:00.539Z,68.48
2023-01-18T12:50:00.497Z,71.70
2023-01-18T12:51:00.547Z,61.55
2023-01-18T12:52:17.168Z,59.14